Time;durP1;ratioP1;P1;durP2;ratioP2;P2;SDS_P1;SDS_P2;PMS_P1;PMS_P2;Temp;Humidity;BMP_temperature;BMP_pressure;BME280_temperature;BME280_humidity;BME280_pressure;Samples;Min_cycle;Max_cycle;Signal;HPM_P1;HPM_P2
2021/05/14 00:01:18;;;;;;;8.98;6.50;;;10.70;99.90;;;;;;5052155;28;19916;-57
2021/05/14 00:03:43;;;;;;;;;;;10.70;99.90;;;;;;5042151;28;20040;-60
2021/05/14 00:06:09;;;;;;;8.30;5.97;;;10.70;99.90;;;;;;5041203;28;20036;-59
2021/05/14 00:08:34;;;;;;;;;;;10.80;99.90;;;;;;5042822;28;20184;-59
2021/05/14 00:11:00;;;;;;;11.25;7.07;;;10.70;99.90;;;;;;5041819;28;19963;-58
2021/05/14 00:13:26;;;;;;;;;;;10.70;99.90;;;;;;5043072;28;20038;-55
2021/05/14 00:15:53;;;;;;;11.35;7.53;;;10.60;99.90;;;;;;5040698;28;19951;-57
2021/05/14 00:18:18;;;;;;;8.32;6.80;;;10.60;99.90;;;;;;5031419;28;20047;-56
2021/05/14 00:20:46;;;;;;;;;;;10.60;99.90;;;;;;5029000;28;20124;-53
2021/05/14 00:23:12;;;;;;;13.55;8.00;;;10.60;99.90;;;;;;5028914;28;20012;-58
2021/05/14 00:25:39;;;;;;;10.63;7.68;;;10.60;99.90;;;;;;5028392;28;20139;-59
2021/05/14 00:28:04;;;;;;;16.63;9.40;;;10.60;99.90;;;;;;5028247;28;20040;-59
2021/05/14 00:30:30;;;;;;;;;;;10.50;99.90;;;;;;5027936;28;20796;-57
2021/05/14 00:32:56;;;;;;;12.63;8.13;;;10.50;99.90;;;;;;5026683;28;19917;-57
2021/05/14 00:35:21;;;;;;;;;;;10.50;99.90;;;;;;5027387;28;20117;-58
2021/05/14 00:37:47;;;;;;;8.88;6.30;;;10.50;99.90;;;;;;5028073;28;19917;-59
2021/05/14 00:40:12;;;;;;;;;;;10.50;99.90;;;;;;5027047;28;20385;-58
2021/05/14 00:42:38;;;;;;;11.55;7.72;;;10.60;99.90;;;;;;5027857;28;19928;-57
2021/05/14 00:45:04;;;;;;;;;;;10.60;99.90;;;;;;5028028;28;20549;-59
2021/05/14 00:47:30;;;;;;;14.00;9.20;;;10.60;99.90;;;;;;5027300;28;19925;-58
2021/05/14 00:49:56;;;;;;;;;;;10.60;99.90;;;;;;5027962;28;20137;-57
2021/05/14 00:52:21;;;;;;;11.40;7.28;;;10.60;99.90;;;;;;5027605;28;19920;-52
2021/05/14 00:54:48;;;;;;;;;;;10.60;99.90;;;;;;5028069;28;20082;-55
2021/05/14 00:57:16;;;;;;;12.03;8.87;;;10.60;99.90;;;;;;5027856;28;19921;-55
2021/05/14 00:59:46;;;;;;;12.80;8.13;;;10.50;99.90;;;;;;5027464;28;20046;-54
2021/05/14 01:02:13;;;;;;;12.85;9.43;;;10.50;99.90;;;;;;5026510;28;20069;-56
2021/05/14 01:04:40;;;;;;;11.60;8.52;;;10.50;99.90;;;;;;5026638;28;20042;-52
2021/05/14 01:07:06;;;;;;;14.05;8.13;;;10.60;99.90;;;;;;5025912;28;20076;-53
2021/05/14 01:09:32;;;;;;;;;;;10.60;99.90;;;;;;5027753;28;20095;-53
2021/05/14 01:11:58;;;;;;;14.95;8.77;;;10.60;99.90;;;;;;5027010;28;19917;-57
2021/05/14 01:14:23;;;;;;;;;;;10.50;99.90;;;;;;5027151;28;20131;-55
2021/05/14 01:16:49;;;;;;;14.48;9.68;;;10.40;99.90;;;;;;5026958;28;20614;-56
2021/05/14 01:19:14;;;;;;;;;;;10.50;99.90;;;;;;5027847;28;20045;-55
2021/05/14 01:21:40;;;;;;;11.73;8.63;;;10.50;99.90;;;;;;5026937;28;19917;-53
2021/05/14 01:24:06;;;;;;;;;;;10.50;99.90;;;;;;5027481;28;20046;-55
2021/05/14 01:26:32;;;;;;;12.95;9.60;;;10.50;99.90;;;;;;5023958;28;19921;-55
2021/05/14 01:28:58;;;;;;;;;;;10.50;99.90;;;;;;5024388;28;20111;-56
2021/05/14 01:31:24;;;;;;;12.55;9.00;;;10.40;99.90;;;;;;5026430;28;20644;-52
2021/05/14 01:33:49;;;;;;;;;;;10.40;99.90;;;;;;5026507;28;20041;-56
2021/05/14 01:36:15;;;;;;;14.85;8.95;;;10.40;99.90;;;;;;5027177;28;19955;-56
2021/05/14 01:38:41;;;;;;;;;;;10.30;99.90;;;;;;5027829;28;20099;-55
2021/05/14 01:41:07;;;;;;;11.50;8.15;;;10.40;99.90;;;;;;5027719;28;19921;-57
2021/05/14 01:43:33;;;;;;;;;;;10.40;99.90;;;;;;5028144;28;20048;-55
2021/05/14 01:45:58;;;;;;;12.50;8.70;;;10.50;99.90;;;;;;5025830;28;20402;-52
2021/05/14 01:48:24;;;;;;;;;;;10.50;99.90;;;;;;5025707;28;20148;-54
2021/05/14 01:50:49;;;;;;;11.77;8.38;;;10.50;99.90;;;;;;5027313;28;19939;-56
2021/05/14 01:53:15;;;;;;;;;;;10.40;99.90;;;;;;5027503;28;20041;-55
2021/05/14 01:55:41;;;;;;;12.00;8.45;;;10.40;99.90;;;;;;5026258;28;20361;-56
2021/05/14 01:58:07;;;;;;;;;;;10.40;99.90;;;;;;5027302;28;20044;-56
2021/05/14 02:00:33;;;;;;;16.08;11.00;;;10.30;99.90;;;;;;5026596;28;19921;-52
2021/05/14 02:02:59;;;;;;;;;;;10.20;99.90;;;;;;5027149;28;20041;-54
2021/05/14 02:05:25;;;;;;;15.15;10.82;;;10.20;99.90;;;;;;5026186;28;19952;-55
2021/05/14 02:07:51;;;;;;;16.70;11.18;;;10.10;99.90;;;;;;5026724;28;20041;-56
2021/05/14 02:10:17;;;;;;;;;;;10.10;99.90;;;;;;5027467;28;20086;-55
2021/05/14 02:12:42;;;;;;;16.00;11.77;;;10.10;99.90;;;;;;5027043;28;19928;-57
2021/05/14 02:15:08;;;;;;;;;;;10.00;99.90;;;;;;5026170;28;20586;-54
2021/05/14 02:17:34;;;;;;;18.52;14.07;;;9.90;99.90;;;;;;5027223;28;19917;-52
2021/05/14 02:19:59;;;;;;;;;;;9.80;99.90;;;;;;5026959;28;20075;-53
2021/05/14 02:22:25;;;;;;;16.75;12.18;;;9.80;99.90;;;;;;5026339;28;20512;-56
2021/05/14 02:24:51;;;;;;;;;;;9.80;99.90;;;;;;5026782;28;20073;-54
2021/05/14 02:27:20;;;;;;;19.13;12.80;;;9.80;99.90;;;;;;5025750;28;20678;-55
2021/05/14 02:29:48;;;;;;;16.35;12.13;;;9.80;99.90;;;;;;5027001;28;20123;-52
2021/05/14 02:32:13;;;;;;;;;;;9.80;99.90;;;;;;5026503;28;20080;-57
2021/05/14 02:34:40;;;;;;;14.75;12.10;;;9.90;99.90;;;;;;5025707;28;20293;-55
2021/05/14 02:37:06;;;;;;;15.68;12.05;;;9.80;99.90;;;;;;5026506;28;20523;-56
2021/05/14 02:39:31;;;;;;;;;;;9.80;99.90;;;;;;5026845;28;20129;-56
2021/05/14 02:41:58;;;;;;;18.50;12.43;;;9.90;99.90;;;;;;5026684;28;20004;-54
2021/05/14 02:44:23;;;;;;;16.92;11.27;;;9.80;99.90;;;;;;5025919;28;20037;-57
2021/05/14 02:46:49;;;;;;;;;;;9.80;99.90;;;;;;5026512;28;20045;-49
2021/05/14 02:49:15;;;;;;;17.15;11.57;;;9.80;99.90;;;;;;5026518;28;19921;-56
2021/05/14 02:51:41;;;;;;;;;;;9.80;99.90;;;;;;5026366;28;20045;-53
2021/05/14 02:54:06;;;;;;;16.98;10.60;;;9.80;99.90;;;;;;5025836;28;20336;-54
2021/05/14 02:56:32;;;;;;;;;;;9.80;99.90;;;;;;5026844;28;20247;-53
2021/05/14 02:58:58;;;;;;;16.25;10.75;;;9.80;99.90;;;;;;5026907;28;20008;-53
2021/05/14 03:01:24;;;;;;;;;;;9.80;99.90;;;;;;5025848;28;20116;-54
2021/05/14 03:03:49;;;;;;;13.73;9.90;;;9.80;99.90;;;;;;5025746;28;20663;-57
2021/05/14 03:06:15;;;;;;;;;;;9.80;99.90;;;;;;5026511;28;20049;-56
2021/05/14 03:08:40;;;;;;;14.57;10.25;;;9.70;99.90;;;;;;5026431;28;20406;-56
2021/05/14 03:11:06;;;;;;;;;;;9.80;99.90;;;;;;5026812;28;20048;-52
2021/05/14 03:13:32;;;;;;;15.95;8.30;;;9.70;99.90;;;;;;5026099;28;19963;-57
2021/05/14 03:15:58;;;;;;;11.68;8.93;;;9.80;99.90;;;;;;5025280;28;20505;-56
2021/05/14 03:18:23;;;;;;;;;;;9.80;99.90;;;;;;5027243;28;20048;-56
2021/05/14 03:20:49;;;;;;;12.30;9.07;;;9.80;99.90;;;;;;5025773;28;20582;-57
2021/05/14 03:23:15;;;;;;;;;;;9.80;99.90;;;;;;5026494;28;20033;-57
2021/05/14 03:25:40;;;;;;;14.45;9.88;;;9.80;99.90;;;;;;5025317;28;19932;-56
2021/05/14 03:28:06;;;;;;;;;;;9.80;99.90;;;;;;5026536;28;20137;-54
2021/05/14 03:30:32;;;;;;;15.35;10.63;;;9.90;99.90;;;;;;5025327;28;19963;-53
2021/05/14 03:32:58;;;;;;;20.70;12.77;;;9.90;99.90;;;;;;5026031;28;20099;-55
2021/05/14 03:35:24;;;;;;;;;;;9.90;99.90;;;;;;5026396;28;20053;-57
2021/05/14 03:37:49;;;;;;;20.42;12.95;;;9.90;99.90;;;;;;5026464;28;19924;-57
2021/05/14 03:40:33;;;;;;;;;;;9.90;99.90;;;;;;5023901;28;20429;-56
2021/05/14 03:42:59;;;;;;;23.98;15.30;;;9.80;99.90;;;;;;5025628;28;19917;-57
2021/05/14 03:45:25;;;;;;;20.67;13.93;;;9.90;99.90;;;;;;5025119;28;20055;-56
2021/05/14 03:47:52;;;;;;;;;;;9.90;99.90;;;;;;5023457;28;20490;-55
2021/05/14 03:50:18;;;;;;;22.77;13.38;;;9.90;99.90;;;;;;5025507;28;19913;-54
2021/05/14 03:52:43;;;;;;;;;;;9.90;99.90;;;;;;5027232;28;20041;-56
2021/05/14 03:55:09;;;;;;;21.33;14.00;;;9.90;99.90;;;;;;5029277;28;20004;-53
2021/05/14 03:57:35;;;;;;;;;;;9.90;99.90;;;;;;5029980;28;20049;-57
2021/05/14 04:00:00;;;;;;;20.73;12.82;;;9.90;99.90;;;;;;5029556;28;19924;-55
2021/05/14 04:02:26;;;;;;;;;;;9.90;99.90;;;;;;5028861;28;20052;-53
2021/05/14 04:04:52;;;;;;;17.20;11.63;;;9.90;99.90;;;;;;5028027;28;20341;-56
2021/05/14 04:07:19;;;;;;;;;;;9.90;99.90;;;;;;5025880;28;20046;-55
2021/05/14 04:09:52;;;;;;;19.67;11.85;;;9.90;99.90;;;;;;5029113;28;19917;-55
2021/05/14 04:15:03;;;;;;;17.92;12.15;;;9.90;99.90;;;;;;5030022;28;20124;-56
2021/05/14 04:17:28;;;;;;;17.63;10.98;;;9.90;99.90;;;;;;5028531;28;20046;-53
2021/05/14 04:19:55;;;;;;;;;;;10.00;99.90;;;;;;5028909;28;20079;-55
2021/05/14 04:22:20;;;;;;;18.85;11.45;;;10.00;99.90;;;;;;5028586;28;19921;-58
2021/05/14 04:24:46;;;;;;;;;;;10.00;99.90;;;;;;5029491;28;20141;-57
2021/05/14 04:27:14;;;;;;;16.95;11.25;;;10.00;99.90;;;;;;5028794;28;19921;-54
2021/05/14 04:29:39;;;;;;;19.20;11.30;;;10.00;99.90;;;;;;5028812;28;20052;-55
2021/05/14 04:32:05;;;;;;;;;;;10.00;99.90;;;;;;5028397;28;20117;-55
2021/05/14 04:34:31;;;;;;;18.73;11.07;;;10.10;99.90;;;;;;5028557;28;20373;-56
2021/05/14 04:36:56;;;;;;;;;;;10.10;99.90;;;;;;5029042;28;20045;-55
2021/05/14 04:39:21;;;;;;;15.63;9.90;;;10.10;99.90;;;;;;5028233;28;19939;-57
2021/05/14 04:41:47;;;;;;;;;;;10.10;99.90;;;;;;5028836;28;20124;-55
2021/05/14 04:44:14;;;;;;;24.30;12.00;;;10.10;99.90;;;;;;5028131;28;19916;-55
2021/05/14 04:46:39;;;;;;;19.85;12.00;;;10.00;99.90;;;;;;5053300;28;20128;-53
2021/05/14 04:49:05;;;;;;;;;;;10.00;99.90;;;;;;5068308;28;20471;-57
2021/05/14 04:51:30;;;;;;;21.50;12.95;;;10.00;99.90;;;;;;5058197;28;19917;-51
2021/05/14 04:53:56;;;;;;;;;;;10.00;99.90;;;;;;5048469;28;20049;-57
2021/05/14 04:56:22;;;;;;;23.83;13.32;;;10.00;99.90;;;;;;5047894;28;19916;-56
2021/05/14 04:58:47;;;;;;;;;;;10.00;99.90;;;;;;5040337;28;20516;-50
2021/05/14 05:01:16;;;;;;;27.15;15.00;;;10.00;99.90;;;;;;5038459;28;19963;-55
2021/05/14 05:03:49;;;;;;;27.08;14.52;;;9.90;99.90;;;;;;5028141;28;20037;-56
2021/05/14 05:06:15;;;;;;;26.92;15.40;;;9.90;99.90;;;;;;5028095;28;20042;-53
2021/05/14 05:08:40;;;;;;;;;;;9.90;99.90;;;;;;5028155;28;20037;-54
2021/05/14 05:11:06;;;;;;;26.48;16.23;;;9.90;99.90;;;;;;5028054;28;19922;-56
2021/05/14 05:13:31;;;;;;;;;;;9.90;99.90;;;;;;5028551;28;20099;-56
2021/05/14 05:15:57;;;;;;;26.02;13.60;;;9.90;99.90;;;;;;5027458;28;19921;-52
2021/05/14 05:18:22;;;;;;;;;;;10.00;99.90;;;;;;5023277;28;20030;-55
2021/05/14 05:20:48;;;;;;;22.23;12.48;;;10.00;99.90;;;;;;5024303;28;19982;-54
2021/05/14 05:23:13;;;;;;;;;;;10.00;99.90;;;;;;5028544;28;20433;-53
2021/05/14 05:25:39;;;;;;;21.88;12.93;;;10.10;99.90;;;;;;5027614;28;19928;-55
2021/05/14 05:28:04;;;;;;;;;;;10.10;99.90;;;;;;5025766;28;20398;-54
2021/05/14 05:30:30;;;;;;;23.23;12.77;;;10.20;99.90;;;;;;5005374;28;19917;-50
2021/05/14 05:32:56;;;;;;;;;;;10.30;99.90;;;;;;5020577;28;20554;-55
2021/05/14 05:35:21;;;;;;;20.08;12.32;;;10.40;99.90;;;;;;5027372;28;20003;-55
2021/05/14 05:37:48;;;;;;;;;;;10.40;99.90;;;;;;5026712;28;20037;-56
2021/05/14 05:40:13;;;;;;;23.23;13.53;;;10.40;99.90;;;;;;5021113;28;19917;-55
2021/05/14 05:42:39;;;;;;;;;;;10.30;99.90;;;;;;5014995;28;20458;-57
2021/05/14 05:45:05;;;;;;;21.08;12.50;;;10.40;99.90;;;;;;5017809;28;19932;-56
2021/05/14 05:47:32;;;;;;;21.17;11.80;;;10.40;99.90;;;;;;5019483;28;20045;-53
2021/05/14 05:49:58;;;;;;;23.00;12.70;;;10.50;99.90;;;;;;5020077;28;20037;-53
2021/05/14 05:52:24;;;;;;;19.98;12.18;;;10.60;99.90;;;;;;5024582;28;20041;-52
2021/05/14 05:54:50;;;;;;;;;;;10.70;99.90;;;;;;5027194;28;20040;-51
2021/05/14 05:57:16;;;;;;;22.13;13.20;;;10.70;99.90;;;;;;5026731;28;20369;-53
2021/05/14 05:59:41;;;;;;;;;;;10.80;99.90;;;;;;5015369;28;20654;-56
2021/05/14 06:02:07;;;;;;;21.67;13.13;;;10.90;99.90;;;;;;5026326;28;19917;-56
2021/05/14 06:04:32;;;;;;;;;;;10.90;99.90;;;;;;5026971;28;20127;-51
2021/05/14 06:06:58;;;;;;;25.10;13.85;;;10.90;99.90;;;;;;5026632;28;20492;-53
2021/05/14 06:09:24;;;;;;;;;;;11.00;99.90;;;;;;5027041;28;20048;-51
2021/05/14 06:11:50;;;;;;;27.95;16.65;;;10.90;99.90;;;;;;5025324;28;20495;-58
2021/05/14 06:14:15;;;;;;;;;;;11.00;99.90;;;;;;5026594;28;20128;-55
2021/05/14 06:16:41;;;;;;;25.33;15.75;;;11.00;99.90;;;;;;5025694;28;21009;-57
2021/05/14 06:21:43;;;;;;;27.45;16.38;;;11.10;99.90;;;;;;5052116;22;19959;-68
2021/05/14 06:24:09;;;;;;;26.88;16.77;;;11.20;99.90;;;;;;5058481;28;20807;-70
2021/05/14 06:26:34;;;;;;;;;;;11.20;99.90;;;;;;5063838;28;20482;-68
2021/05/14 06:29:00;;;;;;;28.55;17.27;;;11.20;99.90;;;;;;5046383;28;19920;-70
2021/05/14 06:31:26;;;;;;;;;;;11.20;99.90;;;;;;5048398;28;20037;-68
2021/05/14 06:33:51;;;;;;;25.30;16.52;;;11.10;99.90;;;;;;5046679;28;19920;-67
2021/05/14 06:36:17;;;;;;;;;;;11.10;99.90;;;;;;5047942;28;20124;-69
2021/05/14 06:38:43;;;;;;;27.33;17.25;;;11.00;99.90;;;;;;5046890;28;19967;-68
2021/05/14 06:41:08;;;;;;;;;;;10.90;99.90;;;;;;5047661;28;20067;-68
2021/05/14 06:43:34;;;;;;;26.48;17.52;;;11.00;99.90;;;;;;5047060;28;19966;-69
2021/05/14 06:46:01;;;;;;;;;;;10.90;99.90;;;;;;5047028;28;20044;-70
2021/05/14 06:48:27;;;;;;;26.55;18.35;;;11.00;99.90;;;;;;5046949;28;19939;-67
2021/05/14 06:50:54;;;;;;;;;;;11.00;99.90;;;;;;5051302;28;20379;-69
2021/05/14 06:53:20;;;;;;;26.27;16.60;;;11.10;99.90;;;;;;5067518;28;19923;-72
2021/05/14 06:55:46;;;;;;;24.13;16.40;;;11.10;99.90;;;;;;5067071;28;20278;-69
2021/05/14 06:58:14;;;;;;;;;;;11.10;99.90;;;;;;5065983;28;20099;-69
2021/05/14 07:00:41;;;;;;;27.35;16.83;;;11.20;99.90;;;;;;5068089;28;19942;-67
2021/05/14 07:03:08;;;;;;;22.25;15.50;;;11.20;99.90;;;;;;5059794;28;20044;-69
2021/05/14 07:05:35;;;;;;;;;;;11.30;99.90;;;;;;5067735;28;20033;-69
2021/05/14 07:08:01;;;;;;;26.02;17.10;;;11.40;99.90;;;;;;5067289;28;19972;-69
2021/05/14 07:10:28;;;;;;;;;;;11.50;99.90;;;;;;5067730;28;20060;-68
2021/05/14 07:12:54;;;;;;;20.60;13.88;;;11.70;99.90;;;;;;5066739;28;19916;-68
2021/05/14 07:15:22;;;;;;;21.80;13.10;;;11.80;99.90;;;;;;5059619;28;20036;-73
2021/05/14 07:17:48;;;;;;;18.40;13.05;;;12.00;99.90;;;;;;5063041;28;20036;-68
2021/05/14 07:20:14;;;;;;;;;;;12.20;99.90;;;;;;5063755;28;20078;-69
2021/05/14 07:22:41;;;;;;;18.90;11.80;;;12.30;99.90;;;;;;5065632;28;19916;-68
2021/05/14 07:25:08;;;;;;;14.73;10.23;;;12.20;99.90;;;;;;5046452;28;20052;-70
2021/05/14 07:27:33;;;;;;;19.45;12.25;;;12.20;99.90;;;;;;5060147;28;20044;-68
2021/05/14 07:30:00;;;;;;;;;;;12.40;98.80;;;;;;5071087;28;20040;-68
2021/05/14 07:32:27;;;;;;;14.80;9.30;;;12.70;99.60;;;;;;5071916;28;19916;-70
2021/05/14 07:34:53;;;;;;;13.48;8.52;;;12.90;98.90;;;;;;5071451;28;20040;-69
2021/05/14 07:37:19;;;;;;;13.70;8.25;;;12.90;98.30;;;;;;5066354;28;20106;-70
2021/05/14 07:39:45;;;;;;;11.73;8.52;;;13.00;98.20;;;;;;5070298;28;20115;-68
2021/05/14 07:42:11;;;;;;;;;;;13.10;97.70;;;;;;5051148;28;20040;-70
2021/05/14 07:44:37;;;;;;;11.60;8.05;;;13.10;97.10;;;;;;5050097;28;19920;-70
2021/05/14 07:47:04;;;;;;;;;;;13.00;97.70;;;;;;5056365;28;20048;-69
2021/05/14 07:49:29;;;;;;;12.57;7.70;;;13.20;96.50;;;;;;5069746;28;19942;-69
2021/05/14 07:51:55;;;;;;;;;;;13.40;96.90;;;;;;5057917;28;20124;-70
2021/05/14 07:54:21;;;;;;;9.40;6.95;;;13.20;95.20;;;;;;5060566;28;20342;-69
2021/05/14 07:56:46;;;;;;;;;;;13.30;96.80;;;;;;5071285;28;20039;-70
2021/05/14 07:59:12;;;;;;;15.23;9.82;;;13.50;96.50;;;;;;5061474;28;19922;-69
2021/05/14 08:01:38;;;;;;;;;;;13.50;94.60;;;;;;5069651;28;20040;-70
2021/05/14 08:04:05;;;;;;;11.57;6.63;;;13.70;95.30;;;;;;5069908;28;19912;-70
2021/05/14 08:06:31;;;;;;;8.95;6.13;;;13.90;94.80;;;;;;5069791;28;20037;-71
2021/05/14 08:08:58;;;;;;;;;;;13.80;93.50;;;;;;5069880;28;20044;-69
2021/05/14 08:11:24;;;;;;;9.40;6.25;;;13.90;93.60;;;;;;5069894;28;19939;-70
2021/05/14 08:13:50;;;;;;;;;;;13.80;93.70;;;;;;5070680;28;20374;-68
2021/05/14 08:16:17;;;;;;;10.15;5.45;;;13.80;94.80;;;;;;5070698;28;19919;-70
2021/05/14 08:18:43;;;;;;;;;;;13.70;93.10;;;;;;5072026;28;20040;-70
2021/05/14 08:21:08;;;;;;;10.50;5.82;;;13.80;93.40;;;;;;5070030;28;19960;-69
2021/05/14 08:23:34;;;;;;;;;;;13.50;90.60;;;;;;5070971;28;20114;-70
2021/05/14 08:26:00;;;;;;;9.68;4.25;;;13.60;91.90;;;;;;5071568;28;19974;-70
2021/05/14 08:28:25;;;;;;;;;;;13.80;93.70;;;;;;5070465;28;20040;-69
2021/05/14 08:30:51;;;;;;;7.18;4.10;;;13.90;90.60;;;;;;5068959;28;19970;-70
2021/05/14 08:33:17;;;;;;;;;;;13.90;92.20;;;;;;5070057;28;20040;-70
2021/05/14 08:35:43;;;;;;;7.55;5.05;;;14.00;92.70;;;;;;5068983;28;19920;-70
2021/05/14 08:38:10;;;;;;;15.77;6.57;;;14.00;92.60;;;;;;5068874;28;20087;-68
2021/05/14 08:40:40;;;;;;;9.48;5.95;;;14.00;91.70;;;;;;5068883;28;20044;-70
2021/05/14 08:43:06;;;;;;;9.38;6.13;;;13.90;92.00;;;;;;5069339;28;20492;-69
2021/05/14 08:45:33;;;;;;;9.10;4.93;;;13.60;90.80;;;;;;5068163;28;20032;-70
2021/05/14 08:47:59;;;;;;;9.25;5.25;;;13.60;92.40;;;;;;5069374;28;20036;-68
2021/05/14 08:50:29;;;;;;;8.55;4.07;;;13.30;90.20;;;;;;5068053;28;20036;-69
2021/05/14 08:52:55;;;;;;;6.22;4.00;;;13.30;92.00;;;;;;5069162;28;20500;-70
2021/05/14 08:55:25;;;;;;;23.80;13.20;;;13.40;92.30;;;;;;5068729;28;20048;-69
2021/05/14 08:57:52;;;;;;;11.38;7.47;;;13.40;91.80;;;;;;5068740;28;20068;-69
2021/05/14 09:00:19;;;;;;;8.57;5.03;;;13.40;92.90;;;;;;5068496;28;20123;-69
2021/05/14 09:02:45;;;;;;;14.80;8.77;;;13.20;91.40;;;;;;5069887;28;20090;-70
2021/05/14 09:05:32;;;;;;;9.73;6.88;;;13.30;92.70;;;;;;5068293;28;20041;-70
2021/05/14 09:08:00;;;;;;;8.88;5.43;;;13.40;92.30;;;;;;5067981;28;20131;-68
2021/05/14 09:10:27;;;;;;;8.18;5.10;;;13.50;92.60;;;;;;5067879;28;20549;-70
2021/05/14 09:12:54;;;;;;;9.32;4.93;;;13.30;91.10;;;;;;5067960;28;20059;-69
2021/05/14 09:15:41;;;;;;;11.18;6.05;;;13.30;92.40;;;;;;5067483;28;20074;-69
2021/05/14 09:18:07;;;;;;;;;;;13.10;93.00;;;;;;5068354;28;20040;-68
2021/05/14 09:20:35;;;;;;;18.15;9.25;;;13.10;93.00;;;;;;5067518;28;19916;-70
2021/05/14 09:23:20;;;;;;;15.63;10.50;;;13.20;92.80;;;;;;5068248;28;20091;-70
2021/05/14 09:26:05;;;;;;;21.88;14.20;;;13.30;92.00;;;;;;5067231;28;20036;-70
2021/05/14 09:28:41;;;;;;;11.90;5.93;;;13.50;92.70;;;;;;5068048;28;20040;-69
2021/05/14 09:31:25;;;;;;;9.82;5.55;;;13.60;91.30;;;;;;5067788;28;20051;-68
2021/05/14 09:34:01;;;;;;;10.25;4.90;;;13.80;92.70;;;;;;5068440;28;20033;-70
2021/05/14 09:36:34;;;;;;;9.90;5.70;;;14.00;91.80;;;;;;5056387;28;20485;-70
2021/05/14 09:39:08;;;;;;;10.68;5.72;;;14.00;91.50;;;;;;5049138;28;20044;-70
2021/05/14 09:41:36;;;;;;;11.13;6.35;;;14.00;91.80;;;;;;5047799;28;20037;-68
2021/05/14 09:44:24;;;;;;;9.70;6.28;;;13.80;90.10;;;;;;5048068;28;20033;-69
2021/05/14 09:46:57;;;;;;;9.60;5.45;;;14.10;90.60;;;;;;5065989;28;20047;-68
2021/05/14 09:49:25;;;;;;;8.63;5.50;;;14.30;91.10;;;;;;5067189;28;20449;-69
2021/05/14 09:51:54;;;;;;;11.18;5.50;;;14.80;90.60;;;;;;5053937;28;20086;-70
2021/05/14 09:54:33;;;;;;;7.60;4.60;;;15.00;90.90;;;;;;5047102;28;20037;-68
2021/05/14 09:57:19;;;;;;;6.82;4.50;;;15.00;86.50;;;;;;5063056;28;20136;-68
2021/05/14 09:59:51;;;;;;;6.80;4.50;;;15.00;87.60;;;;;;5069303;28;20044;-70
2021/05/14 10:02:21;;;;;;;7.25;4.32;;;14.90;88.50;;;;;;5058842;28;20037;-71
2021/05/14 10:04:47;;;;;;;7.75;4.78;;;14.70;89.80;;;;;;5066436;28;20119;-71
2021/05/14 10:07:14;;;;;;;9.82;4.07;;;14.40;89.60;;;;;;5066703;28;20094;-69
2021/05/14 10:09:41;;;;;;;7.88;4.60;;;14.40;90.30;;;;;;5066527;28;20123;-68
2021/05/14 10:12:09;;;;;;;7.85;3.78;;;14.50;89.00;;;;;;5066687;28;20051;-69
2021/05/14 10:14:36;;;;;;;7.50;4.38;;;14.80;87.70;;;;;;5065811;28;20040;-69
2021/05/14 10:17:02;;;;;;;7.97;4.40;;;14.60;85.30;;;;;;5066406;28;20044;-70
2021/05/14 10:19:28;;;;;;;9.88;5.30;;;14.90;89.20;;;;;;5067933;28;20052;-69
2021/05/14 10:21:56;;;;;;;13.55;4.35;;;15.40;89.60;;;;;;5066103;28;20041;-69
2021/05/14 10:24:40;;;;;;;5.97;3.45;;;15.30;86.60;;;;;;5066154;28;20044;-69
2021/05/14 10:27:19;;;;;;;7.50;3.28;;;15.30;84.20;;;;;;5066843;28;20045;-69
2021/05/14 10:29:48;;;;;;;4.05;3.03;;;15.30;84.10;;;;;;5065812;28;20123;-70
2021/05/14 10:32:15;;;;;;;5.32;2.20;;;15.10;81.40;;;;;;5065936;28;20040;-69
2021/05/14 10:34:41;;;;;;;2.20;1.90;;;14.80;81.00;;;;;;5065904;28;20079;-70
2021/05/14 10:37:07;;;;;;;;;;;14.70;83.30;;;;;;5047968;28;20103;-70
2021/05/14 10:39:41;;;;;;;5.80;2.47;;;14.60;83.50;;;;;;5046386;28;19999;-69
2021/05/14 10:42:12;;;;;;;5.25;1.33;;;14.70;83.40;;;;;;5046449;28;21018;-68
2021/05/14 10:44:43;;;;;;;5.72;2.22;;;14.80;82.10;;;;;;5046209;28;20124;-67
2021/05/14 10:47:22;;;;;;;6.05;2.13;;;14.80;79.70;;;;;;5045434;28;20091;-69
2021/05/14 10:49:52;;;;;;;5.82;2.10;;;14.70;77.90;;;;;;5046087;28;20033;-69
2021/05/14 10:52:18;;;;;;;8.35;5.57;;;14.80;81.60;;;;;;5062742;28;20032;-69
2021/05/14 10:54:43;;;;;;;4.30;1.83;;;14.90;81.00;;;;;;5066408;28;20041;-70
2021/05/14 10:57:10;;;;;;;;;;;15.00;79.00;;;;;;5067804;28;20043;-71
2021/05/14 10:59:41;;;;;;;3.77;1.50;;;15.40;83.30;;;;;;5066826;28;19931;-71
2021/05/14 11:02:30;;;;;;;3.50;1.40;;;15.70;77.50;;;;;;5065936;28;20037;-67
2021/05/14 11:04:57;;;;;;;7.30;1.50;;;16.10;76.10;;;;;;5065355;28;20048;-68
2021/05/14 11:07:40;;;;;;;2.58;1.23;;;16.00;73.70;;;;;;5066135;28;20123;-69
2021/05/14 11:10:29;;;;;;;9.65;4.38;;;15.90;74.60;;;;;;5066441;28;20057;-70
2021/05/14 11:12:56;;;;;;;3.85;2.22;;;15.70;73.40;;;;;;5065457;28;20041;-68
2021/05/14 11:15:21;;;;;;;5.53;2.60;;;15.70;75.30;;;;;;5059923;28;20162;-70
2021/05/14 11:18:05;;;;;;;;;;;16.00;77.40;;;;;;5063649;28;20135;-72
2021/05/14 11:20:48;;;;;;;4.65;1.65;;;16.20;70.60;;;;;;5075540;28;19916;-73
2021/05/14 11:23:31;;;;;;;3.83;1.38;;;16.30;73.20;;;;;;5058574;28;20116;-70
2021/05/14 11:25:58;;;;;;;4.80;1.40;;;16.40;72.50;;;;;;5062488;28;20075;-69
2021/05/14 11:28:45;;;;;;;6.53;1.65;;;16.60;72.00;;;;;;5063401;28;20040;-69
2021/05/14 11:31:17;;;;;;;;;;;16.60;71.30;;;;;;5056906;28;20044;-71
2021/05/14 11:33:51;;;;;;;3.60;1.80;;;16.30;72.20;;;;;;5055023;28;19924;-68
2021/05/14 11:36:17;;;;;;;4.50;2.35;;;16.20;69.70;;;;;;5045582;28;20048;-70
2021/05/14 11:38:48;;;;;;;3.53;1.85;;;16.30;72.80;;;;;;5046999;28;20041;-69
2021/05/14 11:41:31;;;;;;;1.65;1.00;;;16.30;66.80;;;;;;5044957;28;20048;-68
2021/05/14 11:44:02;;;;;;;6.55;1.35;;;16.20;65.40;;;;;;5045073;28;20037;-70
2021/05/14 11:46:32;;;;;;;5.70;1.10;;;15.90;63.80;;;;;;5061898;28;20052;-70
2021/05/14 11:49:09;;;;;;;3.55;1.60;;;15.80;66.00;;;;;;5057157;28;20036;-69
2021/05/14 11:51:36;;;;;;;2.40;1.30;;;15.80;68.60;;;;;;5053713;28;20032;-71
2021/05/14 11:54:15;;;;;;;5.90;1.10;;;15.90;66.40;;;;;;5063453;28;20052;-70
2021/05/14 11:56:41;;;;;;;1.60;0.80;;;15.80;69.20;;;;;;5065730;28;20047;-69
2021/05/14 11:59:22;;;;;;;3.95;0.95;;;15.90;71.00;;;;;;5060060;28;20033;-70
2021/05/14 12:01:48;;;;;;;2.47;1.20;;;15.70;70.80;;;;;;5063237;28;20154;-69
2021/05/14 12:04:14;;;;;;;;;;;16.00;72.90;;;;;;5052280;28;20108;-68
2021/05/14 12:06:47;;;;;;;3.17;0.82;;;16.50;68.40;;;;;;5063520;28;19973;-69
2021/05/14 12:09:13;;;;;;;2.92;1.38;;;16.60;64.30;;;;;;5065544;28;20044;-69
2021/05/14 12:11:40;;;;;;;;;;;16.40;68.00;;;;;;5065748;28;20044;-68
2021/05/14 12:14:07;;;;;;;2.92;0.95;;;16.30;67.90;;;;;;5067043;28;20555;-69
2021/05/14 12:16:36;;;;;;;2.92;1.00;;;16.10;69.00;;;;;;5069094;28;20040;-68
2021/05/14 12:19:04;;;;;;;6.93;3.28;;;16.20;71.70;;;;;;5070130;28;20040;-70
2021/05/14 12:21:35;;;;;;;16.48;11.23;;;16.00;67.80;;;;;;5069596;28;20124;-68
2021/05/14 12:24:18;;;;;;;4.28;1.45;;;16.00;68.20;;;;;;5070844;28;20033;-70
2021/05/14 12:26:47;;;;;;;4.55;1.17;;;15.80;71.10;;;;;;5070394;28;20046;-70
2021/05/14 12:29:27;;;;;;;1.50;0.70;;;15.70;67.30;;;;;;5069895;28;20054;-69
2021/05/14 12:32:02;;;;;;;3.30;0.70;;;15.50;63.60;;;;;;5066641;28;20494;-68
2021/05/14 12:34:29;;;;;;;1.92;0.70;;;15.50;66.10;;;;;;5069179;28;20040;-70
2021/05/14 12:36:56;;;;;;;1.60;0.60;;;15.50;67.30;;;;;;5061945;28;20044;-69
2021/05/14 12:39:25;;;;;;;7.13;3.28;;;16.00;70.50;;;;;;5070698;28;20040;-69
2021/05/14 12:44:33;;;;;;;2.03;1.10;;;16.60;65.50;;;;;;5069577;28;20041;-70
2021/05/14 12:47:12;;;;;;;4.10;0.88;;;16.50;61.60;;;;;;5067350;28;20245;-68
2021/05/14 12:49:46;;;;;;;2.05;0.85;;;16.40;63.50;;;;;;5065132;28;20035;-69
2021/05/14 12:52:21;;;;;;;5.35;1.20;;;16.30;63.70;;;;;;5066609;28;20044;-69
2021/05/14 12:54:51;;;;;;;1.33;0.98;;;16.10;65.60;;;;;;5068834;28;20465;-70
2021/05/14 12:57:22;;;;;;;1.83;0.80;;;16.00;65.70;;;;;;5069427;28;20041;-69
2021/05/14 12:59:50;;;;;;;2.95;1.08;;;16.10;67.90;;;;;;5068011;28;20037;-68
2021/05/14 13:02:20;;;;;;;5.07;1.60;;;16.00;68.40;;;;;;5068991;28;20041;-69
2021/05/14 13:04:59;;;;;;;3.92;2.22;;;15.80;64.00;;;;;;5068595;28;20109;-68
2021/05/14 13:07:25;;;;;;;2.67;1.45;;;15.70;68.20;;;;;;5068061;28;20041;-69
2021/05/14 13:09:51;;;;;;;2.92;1.10;;;15.60;68.40;;;;;;5069627;28;20036;-69
2021/05/14 13:12:17;;;;;;;;;;;15.60;70.70;;;;;;5069285;28;20039;-70
2021/05/14 13:14:43;;;;;;;1.65;0.98;;;15.40;66.70;;;;;;5068128;28;19942;-69
2021/05/14 13:17:09;;;;;;;;;;;15.30;68.00;;;;;;5067884;28;20078;-69
2021/05/14 13:19:35;;;;;;;2.75;1.77;;;15.50;68.20;;;;;;5068292;28;19974;-71